Middlefield, Massachusetts
Current Conditions -  °F | °C
As of 2:54 PM on Thursday 27 Nov 2014 (Local Time) from KPSF Reporting Station
Broken Clouds Broken Clouds  
Wind Chill: 21°   Ceiling: 1900
Heat Index: 29°   Visibility: 10mi
Dew Point: 23°   Wind: 8mph
Humidity: 78%   Direction: 330°NNW
Pressure: 29.92"   Gusts: NA
Location:  42.35°N, 73.02°W
Report Text: KPSF 271954Z AUTO 33007KT 10SM BKN019 BKN048 BKN060 M02/M05 A2992 RMK AO2 SLP144 T10171050
Loading
Personal Weather Stations






























Interactive Weather Map New forecast layout! Learn more

10-Day Weather Forecast

Advertisements
Track Severe Weather on mobile